Time;durP1;ratioP1;P1;durP2;ratioP2;P2;SDS_P1;SDS_P2;PMS_P1;PMS_P2;Temp;Humidity;BMP_temperature;BMP_pressure;BME280_temperature;BME280_humidity;BME280_pressure;Samples;Min_cycle;Max_cycle;Signal;HPM_P1;HPM_P2
2023/09/24 00:01:18;;;;;;;1151.22;999.90;;;;;;;18.67;66.36;99342.03;4911246;28;102718;-63
2023/09/24 00:03:49;;;;;;;898.83;845.40;;;;;;;19.76;61.92;99336.63;4910522;28;103323;-63
2023/09/24 00:06:17;;;;;;;740.43;698.37;;;;;;;19.46;60.20;99342.34;4913195;28;104134;-63
2023/09/24 00:08:45;;;;;;;1056.57;979.65;;;;;;;19.58;61.40;99344.69;4912190;28;102677;-63
2023/09/24 00:11:13;;;;;;;996.50;927.13;;;;;;;20.42;58.27;99345.09;4911369;28;104381;-63
2023/09/24 00:13:41;;;;;;;499.30;469.35;;;;;;;20.47;55.89;99350.81;4910230;28;104411;-63
2023/09/24 00:16:10;;;;;;;516.85;489.33;;;;;;;20.38;56.75;99349.06;4909436;28;104302;-63
2023/09/24 00:18:39;;;;;;;398.50;375.27;;;;;;;20.76;55.56;99353.19;4908641;28;102618;-63
2023/09/24 00:21:10;;;;;;;296.23;280.80;;;;;;;20.44;55.28;99352.97;4911378;28;104340;-63
2023/09/24 00:23:38;;;;;;;838.92;777.92;;;;;;;18.88;61.70;99366.75;4904131;28;104694;-63
2023/09/24 00:26:06;;;;;;;1401.72;999.90;;;;;;;18.96;62.02;99369.53;4913064;28;103250;-63
2023/09/24 00:28:34;;;;;;;1148.80;999.90;;;;;;;18.61;63.24;99372.06;4906657;28;102669;-63
2023/09/24 00:31:03;;;;;;;1031.40;954.85;;;;;;;19.60;59.49;99368.63;4913373;28;102757;-63
2023/09/24 00:33:31;;;;;;;829.53;776.03;;;;;;;19.93;57.89;99365.28;4911961;28;105051;-63
2023/09/24 00:36:00;;;;;;;621.40;583.60;;;;;;;20.31;56.41;99368.66;4909633;28;103574;-63
2023/09/24 00:38:29;;;;;;;713.22;674.13;;;;;;;19.60;58.19;99374.84;4916609;28;102569;-63
2023/09/24 00:40:57;;;;;;;826.90;774.83;;;;;;;19.46;57.67;99366.47;4937872;27;103039;-63
2023/09/24 00:43:30;;;;;;;1043.55;961.83;;;;;;;19.02;58.88;99371.63;4906767;28;104032;-63
2023/09/24 00:45:59;;;;;;;1255.80;999.90;;;;;;;19.49;59.17;99374.22;4905830;28;104144;-63
2023/09/24 00:48:30;;;;;;;1145.75;999.90;;;;;;;19.24;59.62;99372.22;4914651;28;102615;-63
2023/09/24 00:51:01;;;;;;;1165.88;999.90;;;;;;;19.66;58.19;99373.41;4910582;28;104590;-63
2023/09/24 00:53:32;;;;;;;921.22;857.85;;;;;;;19.57;57.09;99379.66;4929056;28;104336;-63
2023/09/24 00:56:01;;;;;;;1143.50;999.90;;;;;;;19.59;58.48;99373.16;4902593;28;103520;-63
2023/09/24 00:58:30;;;;;;;1048.18;967.75;;;;;;;19.10;58.97;99368.22;4907399;28;103240;-63
2023/09/24 01:00:59;;;;;;;1244.25;999.90;;;;;;;18.71;60.72;99375.56;4909134;28;102646;-63
2023/09/24 01:03:27;;;;;;;1177.53;999.90;;;;;;;18.82;60.10;99378.06;4907447;28;104233;-63
2023/09/24 01:05:56;;;;;;;1122.95;999.90;;;;;;;19.32;59.17;99383.88;4910731;28;103173;-63
2023/09/24 01:08:25;;;;;;;912.80;846.75;;;;;;;18.68;59.58;99385.72;4907236;28;103073;-63
2023/09/24 01:10:58;;;;;;;1162.10;999.90;;;;;;;18.77;60.41;99393.72;4902666;28;103232;-63
2023/09/24 01:13:35;;;;;;;1077.47;986.58;;;;;;;17.86;64.63;99401.38;4910879;28;103670;-63
2023/09/24 01:16:05;;;;;;;944.60;883.20;;;;;;;19.01;60.83;99398.53;4908246;28;103608;-63
2023/09/24 01:18:36;;;;;;;824.95;772.70;;;;;;;18.42;61.66;99401.50;4907156;28;102854;-63
2023/09/24 01:21:11;;;;;;;1026.80;947.73;;;;;;;18.48;63.18;99400.97;4909386;28;104513;-63
2023/09/24 01:23:42;;;;;;;833.13;780.22;;;;;;;18.60;61.72;99397.16;4904756;28;104020;-63
2023/09/24 01:26:11;;;;;;;837.63;782.58;;;;;;;18.71;61.51;99394.28;4899923;28;103224;-63
2023/09/24 01:28:39;;;;;;;885.63;824.88;;;;;;;18.86;59.98;99389.31;4913729;28;102625;-63
2023/09/24 01:31:08;;;;;;;858.38;800.97;;;;;;;19.26;59.11;99391.66;4910265;28;104215;-63
2023/09/24 01:33:38;;;;;;;761.72;715.17;;;;;;;19.74;57.74;99396.75;4906957;28;103345;-64
2023/09/24 01:36:08;;;;;;;661.13;623.58;;;;;;;18.66;59.14;99391.22;4909827;28;103174;-63
2023/09/24 01:38:36;;;;;;;1211.53;999.90;;;;;;;17.50;64.55;99391.34;4905923;28;102995;-63
2023/09/24 01:41:09;;;;;;;841.37;783.23;;;;;;;18.32;63.46;99392.66;4906663;28;103934;-63
2023/09/24 01:43:42;;;;;;;732.65;688.72;;;;;;;19.01;61.21;99394.03;4903627;28;104403;-63
2023/09/24 01:46:13;;;;;;;692.73;651.93;;;;;;;19.59;58.18;99399.13;4905550;28;104448;-63
2023/09/24 01:48:44;;;;;;;613.67;572.17;;;;;;;18.08;62.18;99397.63;4910217;28;104058;-63
2023/09/24 01:51:12;;;;;;;972.50;893.28;;;;;;;18.34;60.93;99396.03;4907918;28;102846;-63
2023/09/24 01:53:42;;;;;;;898.55;832.80;;;;;;;18.89;58.37;99395.22;4910660;28;103292;-63
2023/09/24 01:56:13;;;;;;;892.20;822.72;;;;;;;18.23;60.08;99401.53;4905956;28;104104;-63
2023/09/24 01:58:42;;;;;;;950.53;876.53;;;;;;;18.42;59.95;99393.47;4908236;28;102753;-63
2023/09/24 02:01:10;;;;;;;768.73;717.37;;;;;;;18.76;58.25;99400.06;4911696;28;104337;-63
2023/09/24 02:03:38;;;;;;;722.17;677.63;;;;;;;19.14;57.49;99393.72;4901755;28;103978;-63
2023/09/24 02:06:09;;;;;;;532.70;499.57;;;;;;;19.28;56.17;99389.69;4908133;28;102970;-63
2023/09/24 02:08:38;;;;;;;727.03;673.13;;;;;;;17.12;64.38;99408.09;4906929;28;103106;-63
2023/09/24 02:11:06;;;;;;;986.47;906.35;;;;;;;17.65;64.07;99401.53;4906557;28;103652;-63
2023/09/24 02:13:38;;;;;;;621.67;584.83;;;;;;;18.20;62.21;99400.00;4911190;28;104402;-63
2023/09/24 02:16:06;;;;;;;574.50;540.20;;;;;;;17.40;64.02;99410.03;4905674;28;104320;-63
2023/09/24 02:18:35;;;;;;;522.07;495.33;;;;;;;18.61;61.02;99404.16;4902521;28;102704;-63
2023/09/24 02:21:14;;;;;;;425.73;401.48;;;;;;;17.76;61.44;99412.09;4903091;28;104026;-63
2023/09/24 02:23:42;;;;;;;671.67;625.22;;;;;;;17.73;62.58;99409.69;4908112;28;104183;-63
2023/09/24 02:26:13;;;;;;;515.30;483.45;;;;;;;18.34;60.63;99406.72;4908461;28;103209;-63
2023/09/24 02:28:44;;;;;;;539.58;508.75;;;;;;;19.03;58.92;99402.75;4907824;28;102993;-63
2023/09/24 02:31:12;;;;;;;375.45;357.50;;;;;;;18.93;57.34;99407.31;4911780;28;104170;-63
2023/09/24 02:33:40;;;;;;;567.80;529.43;;;;;;;17.78;61.18;99412.78;4904016;28;104351;-63
2023/09/24 02:36:09;;;;;;;822.37;757.93;;;;;;;17.21;63.19;99424.16;4906634;28;103559;-63
2023/09/24 02:38:37;;;;;;;79.03;75.63;;;;;;;17.43;64.13;99420.44;4902440;28;102767;-63
2023/09/24 02:41:05;;;;;;;53.35;51.00;;;;;;;17.56;61.89;99428.22;4911714;28;103029;-63
2023/09/24 02:43:34;;;;;;;80.18;76.78;;;;;;;16.71;65.44;99428.56;4907825;28;103380;-63
2023/09/24 02:46:03;;;;;;;93.88;89.88;;;;;;;16.88;64.97;99436.91;4909443;28;104219;-62
2023/09/24 02:48:32;;;;;;;87.73;84.10;;;;;;;17.77;62.48;99424.44;4905380;28;103038;-63
2023/09/24 02:51:08;;;;;;;64.47;61.70;;;;;;;18.05;60.04;99424.63;4905155;28;102718;-63
2023/09/24 02:53:37;;;;;;;72.32;69.13;;;;;;;16.61;64.53;99437.47;4906504;28;103678;-62
2023/09/24 02:56:05;;;;;;;217.00;208.30;;;;;;;16.91;65.24;99425.97;4908078;28;103200;-63
2023/09/24 02:58:34;;;;;;;155.98;149.60;;;;;;;17.07;64.71;99432.50;4910089;28;102692;-63
2023/09/24 03:01:05;;;;;;;147.98;142.07;;;;;;;16.60;65.35;99431.31;4915234;28;103615;-63
2023/09/24 03:03:34;;;;;;;177.80;170.43;;;;;;;17.46;64.31;99427.31;4907365;28;105551;-63
2023/09/24 03:06:02;;;;;;;87.80;84.10;;;;;;;17.55;61.44;99437.19;4907393;28;104215;-64
2023/09/24 03:08:31;;;;;;;175.32;168.10;;;;;;;16.86;65.22;99445.06;4904377;28;102689;-63
2023/09/24 03:10:59;;;;;;;177.40;170.20;;;;;;;17.50;63.83;99444.75;4917834;28;103119;-63
2023/09/24 03:13:27;;;;;;;169.07;162.27;;;;;;;17.16;63.91;99452.22;4906567;28;104160;-62
2023/09/24 03:15:55;;;;;;;147.25;141.15;;;;;;;17.44;62.75;99456.84;4910415;28;103235;-63
2023/09/24 03:18:24;;;;;;;97.47;93.40;;;;;;;17.19;61.89;99458.16;4902201;28;102695;-63
2023/09/24 03:20:54;;;;;;;242.88;233.00;;;;;;;17.16;64.85;99463.75;4910042;28;103817;-63
2023/09/24 03:23:21;;;;;;;136.55;131.05;;;;;;;17.21;62.99;99456.19;4907261;28;103247;-62
2023/09/24 03:25:49;;;;;;;159.35;152.95;;;;;;;17.74;62.29;99459.47;4904034;28;103190;-63
2023/09/24 03:28:17;;;;;;;78.53;75.07;;;;;;;17.51;60.46;99468.69;4904665;28;102690;-62
2023/09/24 03:30:45;;;;;;;98.82;94.85;;;;;;;17.31;62.01;99466.91;4904234;28;103743;-62
2023/09/24 03:33:13;;;;;;;82.60;79.22;;;;;;;17.84;59.61;99471.03;4909435;28;104300;-62
2023/09/24 03:35:43;;;;;;;75.68;72.43;;;;;;;18.07;59.91;99481.47;4906952;28;103223;-62
2023/09/24 03:38:13;;;;;;;71.20;68.10;;;;;;;17.68;59.79;99476.06;4907456;28;103110;-62
2023/09/24 03:40:41;;;;;;;95.50;91.40;;;;;;;17.44;62.17;99482.69;4906669;28;104435;-62
2023/09/24 03:43:08;;;;;;;80.73;77.33;;;;;;;17.63;61.10;99478.28;4904312;28;104433;-62
2023/09/24 03:45:37;;;;;;;109.30;104.77;;;;;;;16.90;63.31;99489.19;4911873;28;104243;-63
2023/09/24 03:48:05;;;;;;;115.40;110.63;;;;;;;17.08;62.79;99484.09;4911246;28;102864;-63
2023/09/24 03:50:33;;;;;;;119.43;114.53;;;;;;;17.37;62.78;99485.91;4903172;28;102945;-63
2023/09/24 03:53:03;;;;;;;126.28;121.20;;;;;;;17.08;63.01;99476.94;4905347;28;105604;-63
2023/09/24 03:55:31;;;;;;;183.48;175.85;;;;;;;16.37;66.70;99487.50;4909106;28;103400;-62
2023/09/24 03:57:59;;;;;;;159.38;152.85;;;;;;;16.68;64.67;99489.31;4907204;28;103025;-62
2023/09/24 04:00:27;;;;;;;146.88;140.98;;;;;;;17.64;62.11;99496.03;4909168;28;102744;-62
2023/09/24 04:02:56;;;;;;;99.93;95.93;;;;;;;16.93;62.98;99493.41;4906920;28;105236;-62
2023/09/24 04:05:24;;;;;;;130.93;125.55;;;;;;;16.95;63.37;99508.34;4904777;28;104246;-63
2023/09/24 04:07:55;;;;;;;170.32;163.50;;;;;;;16.49;64.16;99511.34;4910168;28;102864;-63
2023/09/24 04:10:27;;;;;;;180.05;172.70;;;;;;;16.89;63.29;99516.00;4910024;28;102855;-63
2023/09/24 04:12:57;;;;;;;151.70;145.48;;;;;;;16.67;63.99;99517.81;4907357;28;104161;-63
2023/09/24 04:15:28;;;;;;;162.27;155.63;;;;;;;16.70;65.23;99525.56;4912773;28;103510;-63
2023/09/24 04:17:59;;;;;;;224.60;215.40;;;;;;;16.71;65.37;99523.75;4916949;28;102776;-63
2023/09/24 04:20:29;;;;;;;155.20;148.80;;;;;;;16.11;66.93;99527.84;4910141;28;102719;-63
2023/09/24 04:22:58;;;;;;;218.10;209.07;;;;;;;16.51;65.44;99529.88;4909942;28;103332;-62
2023/09/24 04:25:28;;;;;;;269.08;258.48;;;;;;;16.61;65.64;99533.53;4910531;28;103298;-63
2023/09/24 04:27:56;;;;;;;157.65;151.27;;;;;;;17.63;62.29;99537.06;4907767;28;102717;-63
2023/09/24 04:30:25;;;;;;;97.55;93.65;;;;;;;17.64;60.35;99521.88;4913522;28;103152;-62
2023/09/24 04:32:55;;;;;;;53.20;50.90;;;;;;;18.01;58.94;99532.81;4892010;28;104422;-63
2023/09/24 04:35:27;;;;;;;49.42;47.42;;;;;;;17.91;57.14;99536.31;4910838;28;103317;-63
2023/09/24 04:37:56;;;;;;;58.38;55.97;;;;;;;17.66;57.95;99539.47;4913722;28;102691;-63
2023/09/24 04:40:25;;;;;;;55.75;53.28;;;;;;;17.33;58.51;99539.72;4909162;28;103699;-62
2023/09/24 04:42:54;;;;;;;187.73;180.13;;;;;;;16.21;63.60;99554.59;4907861;28;103821;-62
2023/09/24 04:45:22;;;;;;;220.68;211.50;;;;;;;16.52;63.82;99548.44;4910826;28;103576;-63
2023/09/24 04:47:50;;;;;;;128.38;123.05;;;;;;;17.43;61.09;99545.97;4906593;28;102660;-63
2023/09/24 04:50:19;;;;;;;70.35;67.45;;;;;;;16.99;60.24;99551.59;4908040;28;102816;-63
2023/09/24 04:52:48;;;;;;;87.10;83.60;;;;;;;17.57;59.46;99558.97;4909963;28;103974;-62
2023/09/24 04:55:17;;;;;;;70.53;67.60;;;;;;;17.51;58.52;99554.16;4912942;28;103202;-62
2023/09/24 04:57:45;;;;;;;56.05;53.78;;;;;;;17.72;57.39;99554.13;4913084;28;102904;-63
2023/09/24 05:00:16;;;;;;;39.92;38.22;;;;;;;17.92;57.10;99558.56;4909507;28;103680;-63
2023/09/24 05:02:47;;;;;;;51.22;49.17;;;;;;;17.57;57.27;99567.00;4914315;28;104347;-63
2023/09/24 05:05:16;;;;;;;55.05;52.75;;;;;;;17.23;57.65;99562.88;4910895;28;103215;-63
2023/09/24 05:07:44;;;;;;;109.75;105.20;;;;;;;16.43;60.71;99562.53;4904843;28;103583;-62
2023/09/24 05:10:12;;;;;;;291.15;278.25;;;;;;;16.75;61.08;99562.56;4905724;28;104073;-63
2023/09/24 05:12:41;;;;;;;138.30;132.87;;;;;;;17.59;59.15;99570.41;4910325;28;103852;-62
2023/09/24 05:15:09;;;;;;;80.13;76.75;;;;;;;17.75;57.92;99573.41;4907188;28;103248;-62
2023/09/24 05:17:38;;;;;;;74.40;71.23;;;;;;;17.44;58.32;99576.19;4912339;28;103235;-63
2023/09/24 05:20:09;;;;;;;145.80;139.93;;;;;;;17.28;59.28;99572.19;4904474;28;102761;-63
2023/09/24 05:22:39;;;;;;;100.72;96.45;;;;;;;17.72;57.77;99576.34;4910476;28;104123;-63
2023/09/24 05:25:08;;;;;;;61.67;59.00;;;;;;;17.64;56.56;99578.00;4902634;28;103662;-63
2023/09/24 05:27:36;;;;;;;84.25;80.65;;;;;;;17.47;57.24;99584.78;4906422;28;102778;-63
2023/09/24 05:30:08;;;;;;;194.30;186.17;;;;;;;17.23;58.83;99582.41;4911268;28;104280;-63
2023/09/24 05:32:36;;;;;;;153.90;147.35;;;;;;;17.63;57.78;99581.66;4901549;28;103999;-63
2023/09/24 05:35:06;;;;;;;144.55;138.52;;;;;;;17.24;58.49;99588.59;4910646;28;103351;-63
2023/09/24 05:37:34;;;;;;;454.70;432.45;;;;;;;17.24;59.25;99585.91;4900008;28;102895;-63
2023/09/24 05:40:04;;;;;;;354.58;339.83;;;;;;;17.60;58.96;99585.44;4910441;28;103171;-63
2023/09/24 05:42:32;;;;;;;180.15;172.55;;;;;;;18.00;57.70;99576.56;4907217;28;103333;-63
2023/09/24 05:44:59;;;;;;;84.72;80.97;;;;;;;18.01;56.21;99583.63;4905811;28;103395;-63
2023/09/24 05:47:27;;;;;;;239.52;229.50;;;;;;;16.78;60.80;99591.66;4904919;28;102790;-63
2023/09/24 05:49:56;;;;;;;920.70;862.92;;;;;;;17.46;60.45;99591.09;4909847;28;102622;-64
2023/09/24 05:52:25;;;;;;;950.47;889.88;;;;;;;16.71;62.94;99591.31;4909187;28;104101;-63
2023/09/24 05:54:53;;;;;;;826.00;781.47;;;;;;;17.26;61.81;99592.81;4906937;28;103321;-63
2023/09/24 05:57:21;;;;;;;913.25;864.58;;;;;;;17.27;63.21;99593.66;4916230;28;102673;-63
2023/09/24 05:59:51;;;;;;;398.65;383.08;;;;;;;18.10;60.41;99593.50;4910578;28;104018;-63
2023/09/24 06:02:19;;;;;;;191.32;183.55;;;;;;;18.49;58.74;99584.59;4903613;28;104175;-63
2023/09/24 06:04:49;;;;;;;85.18;81.38;;;;;;;18.73;56.91;99597.56;4897333;28;103293;-63
2023/09/24 06:07:17;;;;;;;67.93;65.13;;;;;;;18.88;55.70;99591.66;4912953;28;102695;-62
2023/09/24 06:09:46;;;;;;;55.67;53.30;;;;;;;19.00;54.64;99592.34;4914539;28;102998;-62
2023/09/24 06:12:14;;;;;;;41.30;39.60;;;;;;;19.01;54.49;99594.03;4907308;28;103686;-62
2023/09/24 06:14:42;;;;;;;48.05;46.15;;;;;;;19.15;54.11;99598.09;4908805;28;104271;-62
2023/09/24 06:17:10;;;;;;;45.95;44.05;;;;;;;19.15;54.27;99603.44;4911436;28;102694;-62
2023/09/24 06:19:40;;;;;;;44.13;42.42;;;;;;;19.22;54.26;99608.09;4908383;28;104037;-62
2023/09/24 06:22:08;;;;;;;52.53;50.38;;;;;;;19.40;53.56;99597.50;4913383;28;103721;-63
2023/09/24 06:24:36;;;;;;;49.05;47.10;;;;;;;19.43;53.75;99607.94;4904963;28;104107;-62
2023/09/24 06:27:06;;;;;;;56.70;54.53;;;;;;;19.56;54.30;99614.66;4909671;28;103271;-62
2023/09/24 06:29:35;;;;;;;59.13;56.83;;;;;;;19.72;54.19;99608.69;4912053;28;102825;-62
2023/09/24 06:32:02;;;;;;;83.85;80.32;;;;;;;19.14;57.14;99607.13;4907537;28;104075;-62
2023/09/24 06:34:35;;;;;;;1096.97;999.90;;;;;;;18.74;59.69;99616.16;4906796;28;103187;-62
2023/09/24 06:37:03;;;;;;;1786.25;999.90;;;;;;;17.42;65.92;99621.75;4910983;28;102705;-63
2023/09/24 06:39:31;;;;;;;791.78;757.28;;;;;;;16.58;70.95;99625.31;4909152;28;104132;-62
2023/09/24 06:42:00;;;;;;;374.67;360.88;;;;;;;16.76;71.88;99620.25;4909886;28;104311;-63
2023/09/24 06:44:29;;;;;;;322.50;310.58;;;;;;;17.39;68.45;99624.66;4911943;28;103371;-63
2023/09/24 06:46:57;;;;;;;323.47;311.37;;;;;;;18.10;66.46;99625.59;4915179;28;103163;-63
2023/09/24 06:49:26;;;;;;;257.67;248.43;;;;;;;18.66;64.47;99621.38;4901899;28;103781;-63
2023/09/24 06:51:54;;;;;;;136.38;131.07;;;;;;;19.54;61.46;99621.16;4906542;28;103318;-63
2023/09/24 06:54:22;;;;;;;154.55;148.52;;;;;;;19.97;58.98;99618.75;4906828;28;103314;-63
2023/09/24 06:56:50;;;;;;;170.23;163.73;;;;;;;20.33;58.12;99619.72;4902011;28;103287;-63
2023/09/24 06:59:18;;;;;;;155.65;149.48;;;;;;;20.45;57.34;99623.03;4908759;28;102839;-63
2023/09/24 07:01:48;;;;;;;169.70;163.00;;;;;;;20.64;56.67;99620.22;4907789;28;103778;-63
2023/09/24 07:04:16;;;;;;;195.40;187.63;;;;;;;20.52;57.17;99613.41;4906358;28;103816;-62
2023/09/24 07:06:47;;;;;;;274.80;263.95;;;;;;;19.82;59.45;99622.09;4907085;28;102702;-63
2023/09/24 07:09:16;;;;;;;616.33;586.20;;;;;;;20.58;57.20;99624.34;4906607;28;104302;-62
2023/09/24 07:11:45;;;;;;;367.60;350.23;;;;;;;20.92;56.45;99624.53;4906367;28;103342;-62
2023/09/24 07:14:13;;;;;;;242.38;231.85;;;;;;;20.92;56.66;99629.03;4899604;28;103843;-62
2023/09/24 07:16:41;;;;;;;166.02;159.05;;;;;;;20.57;57.83;99627.22;4901783;28;102617;-62
2023/09/24 07:19:10;;;;;;;156.45;149.70;;;;;;;21.30;55.62;99626.06;4910055;28;104202;-63
2023/09/24 07:21:38;;;;;;;133.25;127.60;;;;;;;20.96;57.44;99631.28;4906476;28;104004;-63
2023/09/24 07:24:07;;;;;;;154.38;147.57;;;;;;;21.85;55.61;99642.72;4912241;28;104119;-63
2023/09/24 07:26:35;;;;;;;67.65;64.93;;;;;;;22.19;53.25;99640.06;4908584;28;102677;-63
2023/09/24 07:29:03;;;;;;;73.83;70.90;;;;;;;22.05;53.70;99637.97;4911513;28;103045;-63
2023/09/24 07:31:34;;;;;;;61.17;58.57;;;;;;;22.70;52.68;99641.75;4907564;28;103760;-63
2023/09/24 07:34:02;;;;;;;42.03;40.33;;;;;;;21.99;52.57;99634.06;4910382;28;103228;-62
2023/09/24 07:36:32;;;;;;;92.88;88.95;;;;;;;21.34;56.19;99639.03;4908629;28;103851;-62
2023/09/24 07:39:08;;;;;;;61.08;58.58;;;;;;;22.70;51.52;99639.06;4910623;28;103897;-63
2023/09/24 07:41:36;;;;;;;40.20;38.47;;;;;;;22.82;51.30;99637.75;4907991;28;103262;-62
2023/09/24 07:44:05;;;;;;;60.88;58.28;;;;;;;23.28;49.94;99645.19;4908740;28;104425;-63
2023/09/24 07:46:34;;;;;;;65.27;62.57;;;;;;;23.78;49.59;99646.81;4910955;28;102982;-63
2023/09/24 07:49:05;;;;;;;92.68;88.93;;;;;;;23.44;49.43;99649.75;4908887;28;103371;-63
2023/09/24 07:51:35;;;;;;;122.85;117.88;;;;;;;23.82;48.97;99638.22;4919311;28;104030;-63
2023/09/24 07:54:03;;;;;;;109.73;105.43;;;;;;;23.85;49.41;99647.84;4915291;28;103494;-62
2023/09/24 07:56:31;;;;;;;168.70;161.77;;;;;;;24.95;47.62;99639.59;4912207;28;102735;-62
2023/09/24 07:59:00;;;;;;;252.85;242.68;;;;;;;24.90;45.44;99642.00;4907910;28;104589;-62
2023/09/24 08:01:28;;;;;;;101.97;97.83;;;;;;;24.04;49.19;99633.94;4903227;28;103379;-62
2023/09/24 08:04:00;;;;;;;146.73;140.93;;;;;;;24.20;49.44;99636.59;4909374;28;103261;-62
2023/09/24 08:06:28;;;;;;;156.50;150.17;;;;;;;25.37;48.08;99639.94;4907637;28;102728;-62
2023/09/24 08:08:59;;;;;;;337.93;323.77;;;;;;;25.75;45.94;99632.66;4907473;28;104429;-62
2023/09/24 08:11:35;;;;;;;358.83;343.75;;;;;;;25.19;45.09;99636.69;4908255;28;103127;-62
2023/09/24 08:14:02;;;;;;;213.38;204.82;;;;;;;23.71;48.45;99652.09;4905316;28;104017;-62
2023/09/24 08:16:33;;;;;;;205.93;197.82;;;;;;;22.80;50.96;99653.22;4906527;28;102838;-63
2023/09/24 08:19:01;;;;;;;198.43;190.40;;;;;;;25.13;49.54;99645.53;4900900;28;102725;-63
2023/09/24 08:21:29;;;;;;;329.63;316.53;;;;;;;25.07;46.36;99647.09;4909445;28;104812;-63
2023/09/24 08:23:59;;;;;;;253.38;243.40;;;;;;;25.35;48.19;99637.41;4911093;28;103194;-63
2023/09/24 08:26:27;;;;;;;408.43;390.50;;;;;;;26.41;44.25;99642.56;4910019;28;103061;-63
2023/09/24 08:28:55;;;;;;;336.88;321.88;;;;;;;27.24;42.79;99642.03;4909740;28;104038;-63
2023/09/24 08:31:25;;;;;;;371.90;354.83;;;;;;;27.46;42.15;99638.28;4910340;28;103957;-63
2023/09/24 08:33:53;;;;;;;393.43;375.57;;;;;;;26.54;44.67;99645.44;4910881;28;103291;-63
2023/09/24 08:36:21;;;;;;;360.95;344.88;;;;;;;25.44;46.02;99648.16;4911468;28;103307;-63
2023/09/24 08:38:49;;;;;;;427.67;406.80;;;;;;;26.38;43.56;99648.38;4909577;28;102802;-62
2023/09/24 08:41:19;;;;;;;498.17;476.10;;;;;;;27.29;42.23;99650.41;4917366;28;104143;-62
2023/09/24 08:43:47;;;;;;;533.25;508.30;;;;;;;25.96;43.02;99649.03;4901137;28;103306;-62
2023/09/24 08:46:16;;;;;;;461.87;442.87;;;;;;;25.05;46.65;99653.72;4917180;28;104792;-61
2023/09/24 08:48:46;;;;;;;576.28;548.88;;;;;;;27.27;41.61;99650.63;4911021;28;103001;-61
2023/09/24 08:51:15;;;;;;;570.80;544.00;;;;;;;27.78;41.37;99643.16;4913424;28;103301;-62
2023/09/24 08:53:44;;;;;;;582.97;555.63;;;;;;;26.82;42.70;99649.13;4907371;28;103231;-62
2023/09/24 08:56:12;;;;;;;570.20;542.20;;;;;;;27.84;41.15;99636.94;4907581;28;102745;-62
2023/09/24 08:58:44;;;;;;;608.65;578.70;;;;;;;26.79;41.99;99641.38;4905690;28;102977;-62
2023/09/24 09:01:13;;;;;;;572.42;546.00;;;;;;;24.56;45.60;99639.66;4901848;28;103375;-62
2023/09/24 09:03:41;;;;;;;582.38;555.10;;;;;;;25.97;44.02;99634.44;4909413;28;103178;-62
2023/09/24 09:06:09;;;;;;;627.05;595.88;;;;;;;27.76;42.83;99628.94;4911915;28;102731;-61
2023/09/24 09:08:51;;;;;;;621.63;590.40;;;;;;;27.59;41.43;99631.09;4903784;28;103216;-62
2023/09/24 09:11:21;;;;;;;624.95;593.10;;;;;;;26.96;42.39;99629.25;4906080;28;103276;-63
2023/09/24 09:13:50;;;;;;;650.00;616.13;;;;;;;27.60;41.93;99629.22;4908259;28;104762;-63
2023/09/24 09:16:20;;;;;;;637.22;603.42;;;;;;;27.88;40.97;99627.31;4908371;28;103067;-63
2023/09/24 09:19:00;;;;;;;600.67;569.40;;;;;;;27.60;40.45;99623.78;4912191;28;104330;-63
2023/09/24 09:21:29;;;;;;;598.45;568.13;;;;;;;28.49;39.35;99622.03;4904704;28;103287;-63
2023/09/24 09:23:57;;;;;;;570.17;541.47;;;;;;;28.47;39.08;99621.38;4909388;28;102925;-63
2023/09/24 09:26:27;;;;;;;628.10;597.08;;;;;;;28.85;39.50;99622.59;4907599;28;103005;-64
2023/09/24 09:28:57;;;;;;;544.85;518.33;;;;;;;28.32;38.71;99623.44;4910655;28;103891;-63
2023/09/24 09:31:25;;;;;;;576.67;549.20;;;;;;;29.33;38.20;99617.03;4908580;28;103934;-63
2023/09/24 09:33:54;;;;;;;543.55;518.28;;;;;;;26.66;41.35;99629.53;4907182;28;103162;-63
2023/09/24 09:36:23;;;;;;;524.70;499.98;;;;;;;28.58;39.33;99612.63;4907350;28;102961;-63
2023/09/24 09:38:51;;;;;;;542.15;516.75;;;;;;;28.94;37.46;99612.34;4908920;28;103181;-62
2023/09/24 09:41:23;;;;;;;497.85;474.95;;;;;;;27.70;39.19;99608.00;4909377;28;104524;-63
2023/09/24 09:43:52;;;;;;;519.83;496.30;;;;;;;27.23;38.93;99610.53;4904639;28;103564;-63
2023/09/24 09:46:23;;;;;;;542.30;517.73;;;;;;;27.92;38.31;99604.19;4912112;28;103088;-62
2023/09/24 09:48:55;;;;;;;425.40;408.17;;;;;;;28.50;36.99;99601.94;4908504;28;103881;-63
2023/09/24 09:51:25;;;;;;;387.48;372.27;;;;;;;28.76;37.06;99599.34;4903746;28;103674;-63
2023/09/24 09:53:54;;;;;;;406.17;390.30;;;;;;;28.87;36.66;99609.63;4915020;28;103194;-63
2023/09/24 09:56:23;;;;;;;328.40;316.30;;;;;;;28.31;35.83;99606.28;4910967;28;102888;-63
2023/09/24 09:58:52;;;;;;;307.42;296.08;;;;;;;29.42;34.44;99610.34;4909478;28;103956;-63
2023/09/24 10:01:21;;;;;;;322.42;310.60;;;;;;;28.89;35.41;99610.25;4911156;28;104348;-63
2023/09/24 10:03:55;;;;;;;423.20;406.93;;;;;;;28.56;36.41;99592.97;4909674;28;104178;-62
2023/09/24 10:06:27;;;;;;;326.58;314.85;;;;;;;28.25;35.04;99601.66;4913145;28;102653;-62
2023/09/24 10:08:54;;;;;;;321.03;309.50;;;;;;;29.56;34.71;99595.66;4905875;28;102816;-62
2023/09/24 10:11:55;;;;;;;417.17;401.30;;;;;;;28.82;35.72;99593.09;4906807;28;106891;-63
2023/09/24 10:14:34;;;;;;;498.13;477.50;;;;;;;25.03;40.11;99601.69;4907856;28;103296;-63
2023/09/24 10:17:26;;;;;;;508.45;487.27;;;;;;;28.61;37.49;99585.03;4905696;28;103366;-62
2023/09/24 10:19:55;;;;;;;521.20;499.33;;;;;;;28.49;37.72;99589.44;4910538;28;103908;-62
2023/09/24 10:22:30;;;;;;;484.13;464.13;;;;;;;24.23;42.10;99604.69;4907837;28;103820;-63
2023/09/24 10:25:00;;;;;;;490.15;470.13;;;;;;;27.46;38.78;99592.16;4905977;28;103898;-62
2023/09/24 10:27:31;;;;;;;454.33;436.90;;;;;;;26.49;38.37;99605.38;4910129;28;102833;-62
2023/09/24 10:30:09;;;;;;;491.23;471.85;;;;;;;25.82;38.52;99599.28;4909971;28;103673;-62
2023/09/24 10:32:49;;;;;;;460.10;442.38;;;;;;;24.29;39.71;99602.31;4901908;28;104206;-63
2023/09/24 10:35:18;;;;;;;458.95;440.10;;;;;;;25.45;40.51;99607.41;4910136;28;104628;-62
2023/09/24 10:38:10;;;;;;;462.88;443.67;;;;;;;26.42;39.73;99595.47;4905893;28;102851;-62
2023/09/24 10:41:05;;;;;;;360.73;347.40;;;;;;;28.72;36.59;99585.31;4914787;28;104034;-62
2023/09/24 10:43:33;;;;;;;349.58;336.80;;;;;;;27.21;37.37;99596.31;4908297;28;104070;-62
2023/09/24 10:46:28;;;;;;;311.90;300.83;;;;;;;26.73;37.33;99582.47;4912968;28;103278;-61
2023/09/24 10:49:01;;;;;;;440.80;424.08;;;;;;;25.93;38.39;99585.25;4909174;28;102643;-61
2023/09/24 10:51:29;;;;;;;367.27;354.05;;;;;;;25.23;38.12;99592.06;4906880;28;103874;-65
2023/09/24 10:54:12;;;;;;;279.92;270.25;;;;;;;26.99;35.34;99582.78;4909959;28;103653;-62
2023/09/24 10:56:40;;;;;;;261.43;252.27;;;;;;;26.84;35.53;99582.00;4916186;28;103198;-62
2023/09/24 10:59:10;;;;;;;265.70;256.33;;;;;;;26.30;36.16;99591.59;4917492;28;102819;-62
2023/09/24 11:01:38;;;;;;;264.77;255.60;;;;;;;24.88;37.08;99595.38;4918594;28;103956;-62
2023/09/24 11:04:08;;;;;;;263.50;254.32;;;;;;;25.52;36.24;99584.03;4911933;28;104518;-62
2023/09/24 11:06:37;;;;;;;271.13;261.73;;;;;;;26.20;35.27;99582.91;4909161;28;103449;-62
2023/09/24 11:09:22;;;;;;;379.42;365.77;;;;;;;25.12;38.65;99579.00;4913861;28;102763;-62